Time;durP1;ratioP1;P1;durP2;ratioP2;P2;SDS_P1;SDS_P2;PMS_P1;PMS_P2;Temp;Humidity;BMP_temperature;BMP_pressure;BME280_temperature;BME280_humidity;BME280_pressure;Samples;Min_cycle;Max_cycle;Signal;HPM_P1;HPM_P2
2022/12/12 00:01:20;;;;;;;18.07;10.27;;;;;;;;;;5018911;28;20286;-78
2022/12/12 00:03:46;;;;;;;20.30;11.30;;;;;;;;;;5011794;28;20221;-78
2022/12/12 00:06:11;;;;;;;15.00;10.00;;;;;;;;;;5008622;28;20182;-78
2022/12/12 00:08:36;;;;;;;13.63;9.37;;;;;;;;;;5011609;28;20189;-78
2022/12/12 00:11:02;;;;;;;20.50;11.90;;;;;;;;;;5010482;28;20273;-78
2022/12/12 00:13:27;;;;;;;16.93;9.60;;;;;;;;;;5004439;28;20183;-77
2022/12/12 00:15:52;;;;;;;18.47;10.23;;;;;;;;;;5020317;28;20269;-78
2022/12/12 00:18:17;;;;;;;15.17;10.17;;;;;;;;;;5024367;28;20465;-77
2022/12/12 00:20:43;;;;;;;19.67;10.87;;;;;;;;;;5013333;28;20216;-78
2022/12/12 00:23:08;;;;;;;18.13;11.03;;;;;;;;;;5014600;28;20228;-78
2022/12/12 00:25:33;;;;;;;15.97;9.17;;;;;;;;;;5012151;28;20214;-77
2022/12/12 00:27:59;;;;;;;17.97;9.97;;;;;;;;;;5009651;28;20189;-77
2022/12/12 00:30:24;;;;;;;21.23;10.87;;;;;;;;;;5028158;28;20178;-77
2022/12/12 00:32:49;;;;;;;18.30;11.00;;;;;;;;;;5016683;28;20256;-77
2022/12/12 00:35:15;;;;;;;19.03;10.60;;;;;;;;;;5013986;28;20528;-77
2022/12/12 00:37:40;;;;;;;15.93;11.40;;;;;;;;;;5010794;28;20286;-77
2022/12/12 00:40:05;;;;;;;16.97;10.37;;;;;;;;;;5013697;28;20198;-78
2022/12/12 00:42:30;;;;;;;19.83;10.53;;;;;;;;;;5013244;28;20178;-78
2022/12/12 00:44:56;;;;;;;18.87;10.80;;;;;;;;;;5005811;28;20249;-78
2022/12/12 00:47:21;;;;;;;19.47;10.73;;;;;;;;;;5025716;28;20214;-77
2022/12/12 00:49:46;;;;;;;16.40;9.97;;;;;;;;;;5010810;28;20182;-78
2022/12/12 00:52:12;;;;;;;20.13;10.53;;;;;;;;;;5005631;28;20189;-78
2022/12/12 00:54:37;;;;;;;15.63;10.83;;;;;;;;;;5007826;28;20183;-78
2022/12/12 00:57:03;;;;;;;18.23;10.43;;;;;;;;;;5014729;28;20175;-77
2022/12/12 00:59:28;;;;;;;16.83;9.97;;;;;;;;;;5022716;28;20194;-78
2022/12/12 01:01:53;;;;;;;17.00;10.10;;;;;;;;;;5012429;28;20266;-77
2022/12/12 01:04:18;;;;;;;16.80;9.60;;;;;;;;;;5002868;28;20245;-78
2022/12/12 01:06:43;;;;;;;16.37;9.27;;;;;;;;;;5029166;28;20186;-77
2022/12/12 01:09:09;;;;;;;17.23;10.13;;;;;;;;;;5028225;28;20182;-77
2022/12/12 01:11:34;;;;;;;18.33;9.60;;;;;;;;;;5011495;28;20187;-78
2022/12/12 01:13:59;;;;;;;16.03;9.33;;;;;;;;;;5009229;28;20182;-77
2022/12/12 01:16:25;;;;;;;18.00;10.80;;;;;;;;;;4997823;28;21142;-78
2022/12/12 01:18:50;;;;;;;19.73;11.03;;;;;;;;;;5005868;28;20197;-78
2022/12/12 01:21:17;;;;;;;16.63;10.37;;;;;;;;;;5011730;28;20175;-79
2022/12/12 01:23:42;;;;;;;20.30;10.87;;;;;;;;;;5003427;28;20179;-78
2022/12/12 01:26:08;;;;;;;17.60;10.37;;;;;;;;;;5012766;28;20189;-78
2022/12/12 01:28:34;;;;;;;16.90;10.10;;;;;;;;;;5021579;28;20179;-77
2022/12/12 01:30:59;;;;;;;16.77;10.63;;;;;;;;;;5016377;28;20179;-77
2022/12/12 01:33:24;;;;;;;18.27;10.53;;;;;;;;;;5011150;28;20230;-77
2022/12/12 01:35:50;;;;;;;18.33;10.00;;;;;;;;;;5008763;28;20207;-77
2022/12/12 01:38:15;;;;;;;14.80;10.37;;;;;;;;;;5018033;28;20178;-77
2022/12/12 01:40:40;;;;;;;15.60;10.97;;;;;;;;;;5008097;28;20187;-77
2022/12/12 01:43:10;;;;;;;17.50;10.90;;;;;;;;;;5011185;28;20175;-78
2022/12/12 01:46:11;;;;;;;16.93;10.67;;;;;;;;;;5005626;28;20174;-77
2022/12/12 01:48:51;;;;;;;15.87;9.50;;;;;;;;;;4974325;28;20300;-77
2022/12/12 01:51:18;;;;;;;12.60;9.70;;;;;;;;;;5023487;28;20195;-78
2022/12/12 01:53:43;;;;;;;20.47;10.80;;;;;;;;;;5010176;28;20175;-78
2022/12/12 01:56:11;;;;;;;18.03;9.77;;;;;;;;;;5011481;28;20289;-78
2022/12/12 01:58:38;;;;;;;23.13;13.30;;;;;;;;;;5004860;28;20178;-77
2022/12/12 02:01:03;;;;;;;18.93;11.63;;;;;;;;;;5012611;28;20183;-78
2022/12/12 02:03:28;;;;;;;19.67;9.27;;;;;;;;;;5011781;28;20205;-78
2022/12/12 02:05:56;;;;;;;19.83;9.93;;;;;;;;;;5013597;28;20181;-78
2022/12/12 02:08:22;;;;;;;18.30;9.90;;;;;;;;;;5013235;28;20190;-77
2022/12/12 02:10:47;;;;;;;18.37;8.63;;;;;;;;;;5006021;28;20171;-78
2022/12/12 02:13:15;;;;;;;19.80;10.77;;;;;;;;;;5011265;28;20186;-77
2022/12/12 02:15:43;;;;;;;17.83;10.67;;;;;;;;;;5017361;28;20320;-77
2022/12/12 02:18:28;;;;;;;21.67;12.07;;;;;;;;;;5009037;28;20339;-78
2022/12/12 02:21:08;;;;;;;12.87;8.27;;;;;;;;;;5013908;28;20175;-77
2022/12/12 02:23:36;;;;;;;12.93;6.87;;;;;;;;;;5010365;28;20187;-77
2022/12/12 02:26:20;;;;;;;16.17;9.40;;;;;;;;;;5015368;28;20311;-78
2022/12/12 02:28:48;;;;;;;15.57;8.60;;;;;;;;;;5004624;28;20179;-78
2022/12/12 02:31:28;;;;;;;18.20;9.50;;;;;;;;;;5011131;28;20175;-78
2022/12/12 02:34:03;;;;;;;14.33;8.10;;;;;;;;;;5007642;28;20198;-77
2022/12/12 02:36:35;;;;;;;14.13;7.37;;;;;;;;;;5030485;28;20206;-78
2022/12/12 02:39:03;;;;;;;13.47;7.30;;;;;;;;;;5004655;28;20181;-77
2022/12/12 02:41:41;;;;;;;12.47;7.80;;;;;;;;;;5009711;28;20179;-78
2022/12/12 02:44:13;;;;;;;14.47;8.60;;;;;;;;;;5012579;28;20277;-77
2022/12/12 02:46:42;;;;;;;15.37;8.27;;;;;;;;;;5025703;28;20193;-77
2022/12/12 02:49:10;;;;;;;14.73;8.40;;;;;;;;;;5010819;28;20186;-77
2022/12/12 02:51:36;;;;;;;17.30;9.60;;;;;;;;;;5016190;28;20453;-78
2022/12/12 02:54:03;;;;;;;12.33;7.87;;;;;;;;;;5031721;28;20183;-77
2022/12/12 02:56:42;;;;;;;15.00;8.90;;;;;;;;;;5017707;28;20236;-77
2022/12/12 02:59:08;;;;;;;14.87;7.80;;;;;;;;;;5030514;28;20178;-78
2022/12/12 03:01:33;;;;;;;13.20;7.73;;;;;;;;;;5010459;28;20182;-78
2022/12/12 03:09:52;;;;;;;13.27;8.03;;;;;;;;;;5023776;28;20190;-77
2022/12/12 03:12:25;;;;;;;10.63;7.17;;;;;;;;;;5027192;28;20191;-77
2022/12/12 03:14:58;;;;;;;16.40;8.53;;;;;;;;;;5022819;28;20206;-78
2022/12/12 03:17:23;;;;;;;11.90;7.30;;;;;;;;;;5013561;28;20191;-78
2022/12/12 03:20:05;;;;;;;15.07;8.03;;;;;;;;;;5017112;28;20186;-77
2022/12/12 03:22:40;;;;;;;15.00;7.57;;;;;;;;;;5012885;28;20178;-78
2022/12/12 03:25:15;;;;;;;14.13;6.57;;;;;;;;;;5015727;28;20185;-77
2022/12/12 03:27:45;;;;;;;12.40;5.87;;;;;;;;;;5014479;28;20221;-78
2022/12/12 03:30:12;;;;;;;15.07;7.63;;;;;;;;;;5012636;28;20206;-78
2022/12/12 03:32:40;;;;;;;12.43;6.53;;;;;;;;;;5027764;28;20235;-78
2022/12/12 03:35:09;;;;;;;13.57;9.03;;;;;;;;;;5014501;28;20202;-77
2022/12/12 03:37:36;;;;;;;12.90;7.13;;;;;;;;;;5011858;28;20178;-77
2022/12/12 03:40:06;;;;;;;15.90;9.17;;;;;;;;;;5017052;28;20274;-77
2022/12/12 03:42:34;;;;;;;12.33;7.80;;;;;;;;;;5011533;28;20186;-78
2022/12/12 03:45:04;;;;;;;12.70;6.80;;;;;;;;;;5014137;28;20179;-77
2022/12/12 03:47:37;;;;;;;14.40;8.60;;;;;;;;;;5015748;28;20198;-77
2022/12/12 03:50:06;;;;;;;14.20;7.97;;;;;;;;;;5019288;28;20175;-77
2022/12/12 03:52:58;;;;;;;11.93;8.20;;;;;;;;;;5015549;28;20190;-77
2022/12/12 03:55:29;;;;;;;9.90;6.47;;;;;;;;;;5008810;28;20206;-77
2022/12/12 03:58:04;;;;;;;11.57;6.43;;;;;;;;;;5011702;28;20221;-78
2022/12/12 04:00:31;;;;;;;13.33;6.70;;;;;;;;;;5014299;28;20186;-78
2022/12/12 04:03:02;;;;;;;14.70;7.30;;;;;;;;;;5015237;28;20316;-77
2022/12/12 04:05:31;;;;;;;17.27;9.03;;;;;;;;;;5030377;28;20240;-77
2022/12/12 04:08:07;;;;;;;14.50;7.43;;;;;;;;;;5014002;28;20190;-77
2022/12/12 04:13:33;;;;;;;12.10;6.33;;;;;;;;;;5032003;28;20237;-77
2022/12/12 04:16:14;;;;;;;13.17;7.40;;;;;;;;;;5015718;28;20205;-77
2022/12/12 04:18:54;;;;;;;10.73;6.93;;;;;;;;;;5016444;28;20206;-78
2022/12/12 04:24:12;;;;;;;20.87;12.33;;;;;;;;;;5021799;28;20245;-77
2022/12/12 04:26:45;;;;;;;16.13;8.47;;;;;;;;;;5012976;28;20183;-77
2022/12/12 04:29:10;;;;;;;18.60;9.33;;;;;;;;;;5014686;28;20190;-77
2022/12/12 04:31:38;;;;;;;15.43;9.23;;;;;;;;;;5030067;28;20290;-77
2022/12/12 04:34:08;;;;;;;14.50;8.37;;;;;;;;;;5012122;28;20182;-77
2022/12/12 04:36:34;;;;;;;14.47;8.07;;;;;;;;;;5012289;28;20213;-77
2022/12/12 04:38:59;;;;;;;14.77;7.73;;;;;;;;;;5015825;28;20265;-78
2022/12/12 04:41:25;;;;;;;13.73;8.93;;;;;;;;;;5014503;28;20179;-78
2022/12/12 04:43:52;;;;;;;10.33;6.60;;;;;;;;;;5000709;28;20179;-77
2022/12/12 04:46:20;;;;;;;11.73;6.67;;;;;;;;;;5027084;28;20178;-77
2022/12/12 04:48:45;;;;;;;11.67;6.77;;;;;;;;;;5023328;28;20182;-77
2022/12/12 04:51:11;;;;;;;12.90;7.40;;;;;;;;;;5006199;28;20185;-77
2022/12/12 04:53:39;;;;;;;13.37;7.63;;;;;;;;;;5013819;28;20195;-78
2022/12/12 04:56:07;;;;;;;11.00;6.20;;;;;;;;;;5010991;28;20289;-78
2022/12/12 04:58:32;;;;;;;15.27;8.83;;;;;;;;;;5012592;28;20198;-78
2022/12/12 05:01:08;;;;;;;12.70;7.47;;;;;;;;;;5013698;28;20300;-77
2022/12/12 05:03:40;;;;;;;13.17;8.47;;;;;;;;;;5017147;28;20221;-77
2022/12/12 05:06:07;;;;;;;12.23;7.33;;;;;;;;;;5011741;28;20178;-77
2022/12/12 05:08:40;;;;;;;11.77;7.17;;;;;;;;;;5014596;28;20182;-77
2022/12/12 05:11:05;;;;;;;12.63;8.00;;;;;;;;;;5012544;28;20186;-77
2022/12/12 05:13:32;;;;;;;13.07;6.80;;;;;;;;;;5026271;28;20198;-77
2022/12/12 05:15:58;;;;;;;11.77;6.83;;;;;;;;;;5016852;28;20216;-77
2022/12/12 05:18:24;;;;;;;13.57;7.63;;;;;;;;;;5012469;28;20195;-77
2022/12/12 05:20:49;;;;;;;12.40;7.90;;;;;;;;;;5014531;28;20174;-77
2022/12/12 05:23:14;;;;;;;16.63;8.53;;;;;;;;;;5015079;28;20179;-78
2022/12/12 05:25:40;;;;;;;16.43;8.67;;;;;;;;;;5016563;28;21659;-77
2022/12/12 05:28:05;;;;;;;14.17;7.87;;;;;;;;;;5022577;28;20254;-77
2022/12/12 05:30:30;;;;;;;15.67;7.97;;;;;;;;;;5009130;28;20195;-77
2022/12/12 05:32:55;;;;;;;12.90;7.20;;;;;;;;;;5034349;28;20234;-77
2022/12/12 05:35:21;;;;;;;14.20;8.97;;;;;;;;;;5043484;28;20236;-77
2022/12/12 05:37:46;;;;;;;13.47;8.03;;;;;;;;;;5044965;28;20178;-77
2022/12/12 05:40:11;;;;;;;19.37;10.00;;;;;;;;;;5046458;28;20209;-77
2022/12/12 05:42:37;;;;;;;16.77;9.50;;;;;;;;;;5047070;28;20173;-77
2022/12/12 05:45:02;;;;;;;16.67;8.77;;;;;;;;;;5049865;28;20257;-77
2022/12/12 05:47:27;;;;;;;20.70;10.47;;;;;;;;;;5044725;28;20187;-77
2022/12/12 05:49:53;;;;;;;18.43;9.20;;;;;;;;;;5047907;28;20178;-77
2022/12/12 05:52:18;;;;;;;21.33;11.50;;;;;;;;;;5046508;28;20165;-77
2022/12/12 05:54:43;;;;;;;17.40;9.93;;;;;;;;;;5053702;28;20170;-77
2022/12/12 05:57:08;;;;;;;15.90;8.83;;;;;;;;;;5045871;28;21119;-77
2022/12/12 05:59:34;;;;;;;16.37;9.43;;;;;;;;;;5050333;28;20178;-77
2022/12/12 06:01:59;;;;;;;23.30;12.73;;;;;;;;;;5046035;28;20216;-77
2022/12/12 06:04:24;;;;;;;26.07;13.47;;;;;;;;;;5039384;28;20216;-77
2022/12/12 06:06:49;;;;;;;25.37;14.00;;;;;;;;;;5041746;28;20182;-77
2022/12/12 06:09:14;;;;;;;20.57;12.77;;;;;;;;;;5042668;28;20189;-84
2022/12/12 06:11:40;;;;;;;34.80;13.80;;;;;;;;;;5038008;28;20273;-85
2022/12/12 06:14:05;;;;;;;25.30;14.00;;;;;;;;;;5043475;28;20184;-85
2022/12/12 06:16:30;;;;;;;21.00;11.63;;;;;;;;;;5046958;28;20289;-84
2022/12/12 06:18:56;;;;;;;18.27;12.53;;;;;;;;;;5047187;28;20213;-85
2022/12/12 06:21:21;;;;;;;35.33;19.67;;;;;;;;;;5041459;28;20242;-85
2022/12/12 06:23:47;;;;;;;22.07;11.93;;;;;;;;;;5043432;28;20184;-84
2022/12/12 06:26:13;;;;;;;38.30;23.40;;;;;;;;;;5044742;28;20175;-83
2022/12/12 06:28:38;;;;;;;31.17;18.87;;;;;;;;;;5067586;28;20182;-85
2022/12/12 06:31:04;;;;;;;20.40;12.47;;;;;;;;;;5044885;28;20269;-85
2022/12/12 06:33:31;;;;;;;19.80;13.03;;;;;;;;;;5003161;28;20224;-85
2022/12/12 06:36:00;;;;;;;22.23;13.20;;;;;;;;;;5012177;28;20214;-85
2022/12/12 06:38:25;;;;;;;22.13;12.67;;;;;;;;;;5009678;28;20184;-84
2022/12/12 06:40:50;;;;;;;20.93;12.83;;;;;;;;;;5007875;28;20174;-85
2022/12/12 06:43:16;;;;;;;19.83;11.73;;;;;;;;;;5005596;28;20174;-84
2022/12/12 06:45:41;;;;;;;20.13;11.50;;;;;;;;;;5010176;28;20205;-84
2022/12/12 06:48:06;;;;;;;19.60;12.93;;;;;;;;;;5003655;28;20182;-84
2022/12/12 06:50:31;;;;;;;20.10;10.87;;;;;;;;;;5010774;28;20181;-83
2022/12/12 06:52:57;;;;;;;18.97;11.67;;;;;;;;;;5010556;28;20186;-84
2022/12/12 06:55:22;;;;;;;19.17;11.53;;;;;;;;;;5012042;28;20202;-85
2022/12/12 06:57:47;;;;;;;20.60;10.50;;;;;;;;;;5014368;28;20250;-83
2022/12/12 07:00:13;;;;;;;19.93;10.47;;;;;;;;;;5008336;28;20205;-85
2022/12/12 07:02:38;;;;;;;20.10;11.43;;;;;;;;;;5006212;28;20183;-84
2022/12/12 07:05:03;;;;;;;27.40;15.33;;;;;;;;;;5010706;28;20213;-85
2022/12/12 07:07:28;;;;;;;25.50;11.80;;;;;;;;;;5007425;28;20186;-84
2022/12/12 07:09:54;;;;;;;20.20;9.97;;;;;;;;;;5011440;28;20183;-84
2022/12/12 07:12:19;;;;;;;22.50;11.37;;;;;;;;;;5011905;28;20194;-85
2022/12/12 07:14:44;;;;;;;21.73;11.57;;;;;;;;;;5006200;28;20191;-85
2022/12/12 07:17:10;;;;;;;20.20;11.47;;;;;;;;;;5009983;28;20214;-85
2022/12/12 07:19:35;;;;;;;27.03;13.03;;;;;;;;;;5014035;28;20178;-85
2022/12/12 07:22:00;;;;;;;27.43;16.43;;;;;;;;;;5015302;28;20175;-85
2022/12/12 07:24:26;;;;;;;23.50;14.43;;;;;;;;;;5008771;28;20179;-85
2022/12/12 07:26:51;;;;;;;18.90;12.53;;;;;;;;;;5012521;28;20236;-85
2022/12/12 07:29:16;;;;;;;22.93;13.97;;;;;;;;;;5009921;28;20186;-86
2022/12/12 07:31:41;;;;;;;22.00;13.63;;;;;;;;;;5018570;28;20260;-85
2022/12/12 07:34:07;;;;;;;27.73;15.40;;;;;;;;;;5049275;28;20204;-85
2022/12/12 07:36:32;;;;;;;22.63;13.90;;;;;;;;;;5042701;28;20241;-85
2022/12/12 07:38:57;;;;;;;22.23;12.30;;;;;;;;;;5051327;28;20202;-85
2022/12/12 07:41:22;;;;;;;22.10;13.20;;;;;;;;;;5049569;28;20261;-85
2022/12/12 07:43:48;;;;;;;26.57;14.90;;;;;;;;;;5046513;28;20174;-86
2022/12/12 07:46:15;;;;;;;28.60;21.60;;;;;;;;;;5052825;28;20186;-85
2022/12/12 07:48:40;;;;;;;21.30;11.60;;;;;;;;;;5049213;28;20277;-85
2022/12/12 07:51:06;;;;;;;19.33;11.77;;;;;;;;;;5050287;28;20257;-83
2022/12/12 07:53:31;;;;;;;21.70;12.33;;;;;;;;;;5046966;28;20224;-85
2022/12/12 07:55:56;;;;;;;19.40;11.07;;;;;;;;;;5048036;28;20186;-86
2022/12/12 07:58:22;;;;;;;21.63;12.70;;;;;;;;;;5051460;28;20193;-85
2022/12/12 08:00:47;;;;;;;24.90;13.63;;;;;;;;;;5050814;28;20186;-86
2022/12/12 08:03:13;;;;;;;26.17;13.90;;;;;;;;;;5044715;28;20194;-85
2022/12/12 08:05:41;;;;;;;17.23;10.70;;;;;;;;;;5049050;28;20193;-86
2022/12/12 08:08:07;;;;;;;15.63;9.33;;;;;;;;;;5048288;28;20209;-85
2022/12/12 08:10:32;;;;;;;18.43;9.60;;;;;;;;;;5045775;28;20181;-85
2022/12/12 08:12:58;;;;;;;13.47;8.93;;;;;;;;;;5051031;28;20192;-85
2022/12/12 08:15:23;;;;;;;16.60;9.87;;;;;;;;;;5048157;28;20350;-86
2022/12/12 08:17:48;;;;;;;14.47;8.10;;;;;;;;;;5049227;28;20202;-84
2022/12/12 08:20:13;;;;;;;17.37;8.27;;;;;;;;;;5039667;28;20200;-84
2022/12/12 08:22:38;;;;;;;17.37;8.23;;;;;;;;;;5045818;28;20174;-86
2022/12/12 08:25:04;;;;;;;15.27;7.57;;;;;;;;;;5046027;28;20215;-86
2022/12/12 08:27:29;;;;;;;14.70;6.73;;;;;;;;;;5044441;28;20182;-86
2022/12/12 08:29:54;;;;;;;14.37;8.13;;;;;;;;;;5047788;28;20185;-86
2022/12/12 08:32:19;;;;;;;16.47;8.87;;;;;;;;;;5048826;28;20257;-85
2022/12/12 08:34:46;;;;;;;19.73;11.77;;;;;;;;;;5049699;28;20235;-84
2022/12/12 08:37:11;;;;;;;20.70;10.67;;;;;;;;;;5050937;28;20273;-86
2022/12/12 08:39:37;;;;;;;17.90;9.47;;;;;;;;;;5047288;28;20265;-86
2022/12/12 08:42:03;;;;;;;16.23;7.40;;;;;;;;;;5043925;28;20174;-86
2022/12/12 08:44:28;;;;;;;11.80;6.23;;;;;;;;;;5044244;28;20178;-86
2022/12/12 08:46:53;;;;;;;13.93;10.67;;;;;;;;;;5045036;28;20286;-86
2022/12/12 08:49:18;;;;;;;13.23;8.20;;;;;;;;;;5045977;28;20196;-85
2022/12/12 08:51:44;;;;;;;16.07;9.77;;;;;;;;;;5045954;28;20213;-86
2022/12/12 08:54:10;;;;;;;15.20;8.47;;;;;;;;;;5043902;28;20186;-86
2022/12/12 08:56:35;;;;;;;14.10;8.10;;;;;;;;;;5046290;28;20277;-86
2022/12/12 08:59:01;;;;;;;12.57;7.20;;;;;;;;;;5048262;28;20269;-86
2022/12/12 09:01:26;;;;;;;12.07;7.43;;;;;;;;;;5038510;28;20178;-83
2022/12/12 09:03:53;;;;;;;15.20;8.57;;;;;;;;;;5049259;28;20174;-82
2022/12/12 09:06:19;;;;;;;13.20;8.40;;;;;;;;;;5049371;28;20212;-83
2022/12/12 09:08:44;;;;;;;14.40;8.43;;;;;;;;;;5053181;28;20190;-82
2022/12/12 09:11:10;;;;;;;12.97;7.70;;;;;;;;;;5052863;28;20188;-82
2022/12/12 09:13:35;;;;;;;15.70;7.20;;;;;;;;;;5054926;28;20181;-82
2022/12/12 09:16:00;;;;;;;15.50;7.00;;;;;;;;;;5044403;28;20240;-83
2022/12/12 09:18:25;;;;;;;11.07;6.40;;;;;;;;;;5050933;28;20193;-83
2022/12/12 09:20:52;;;;;;;12.17;6.47;;;;;;;;;;5049148;28;20208;-83
2022/12/12 09:23:17;;;;;;;11.97;7.40;;;;;;;;;;5053196;28;20178;-83
2022/12/12 09:25:42;;;;;;;13.87;6.93;;;;;;;;;;5048355;28;20242;-83
2022/12/12 09:28:09;;;;;;;10.00;6.13;;;;;;;;;;5040185;28;20174;-83
2022/12/12 09:30:34;;;;;;;9.20;6.10;;;;;;;;;;5051919;28;20185;-83
2022/12/12 09:32:59;;;;;;;9.87;5.83;;;;;;;;;;5044478;28;20238;-83
2022/12/12 09:35:24;;;;;;;9.43;5.67;;;;;;;;;;5044896;28;20193;-83
2022/12/12 09:37:50;;;;;;;10.60;6.70;;;;;;;;;;5049290;28;20201;-84
2022/12/12 09:40:22;;;;;;;10.10;6.00;;;;;;;;;;5045962;28;20289;-83
2022/12/12 09:42:49;;;;;;;11.50;6.43;;;;;;;;;;5048402;28;20273;-84
2022/12/12 09:45:14;;;;;;;8.37;5.40;;;;;;;;;;5047703;28;20181;-82
2022/12/12 09:47:41;;;;;;;9.77;6.50;;;;;;;;;;5050040;28;20170;-84
2022/12/12 09:50:13;;;;;;;9.10;6.13;;;;;;;;;;5039539;28;20216;-84
2022/12/12 09:52:39;;;;;;;8.90;5.13;;;;;;;;;;5045931;28;20208;-84
2022/12/12 09:55:19;;;;;;;6.73;4.50;;;;;;;;;;5046187;28;20174;-84
2022/12/12 09:57:48;;;;;;;7.93;4.67;;;;;;;;;;5049063;28;20186;-84
2022/12/12 10:00:14;;;;;;;7.63;5.07;;;;;;;;;;5043974;28;20182;-84
2022/12/12 10:02:43;;;;;;;7.53;4.13;;;;;;;;;;5068961;28;20183;-84
2022/12/12 10:05:14;;;;;;;6.80;3.80;;;;;;;;;;5047405;28;20285;-84
2022/12/12 10:07:45;;;;;;;10.30;7.37;;;;;;;;;;5043350;28;20201;-84
2022/12/12 10:10:17;;;;;;;8.50;4.80;;;;;;;;;;5046758;28;20196;-84
2022/12/12 10:12:43;;;;;;;6.03;4.17;;;;;;;;;;5044277;28;20179;-84
2022/12/12 10:15:19;;;;;;;11.97;7.47;;;;;;;;;;5048897;28;20176;-84
2022/12/12 10:17:46;;;;;;;5.70;3.37;;;;;;;;;;5043855;28;20269;-84
2022/12/12 10:20:16;;;;;;;5.00;3.63;;;;;;;;;;5042106;28;20196;-85
2022/12/12 10:22:51;;;;;;;8.50;4.37;;;;;;;;;;5047674;28;20185;-85
2022/12/12 10:25:24;;;;;;;7.53;4.00;;;;;;;;;;5041896;28;20256;-85
2022/12/12 10:27:52;;;;;;;8.97;7.23;;;;;;;;;;5043050;28;20210;-85
2022/12/12 10:30:18;;;;;;;5.47;4.10;;;;;;;;;;5066154;28;20217;-85
2022/12/12 10:32:53;;;;;;;4.70;3.23;;;;;;;;;;5045017;28;20222;-85
2022/12/12 10:35:18;;;;;;;3.63;3.27;;;;;;;;;;5042592;28;20223;-84
2022/12/12 10:38:01;;;;;;;5.47;3.80;;;;;;;;;;5046505;28;20181;-85
2022/12/12 10:40:38;;;;;;;3.33;3.00;;;;;;;;;;5048268;28;20184;-85
2022/12/12 10:43:16;;;;;;;8.70;5.27;;;;;;;;;;5039259;28;20166;-85
2022/12/12 10:46:00;;;;;;;9.30;7.13;;;;;;;;;;5043939;28;20181;-85
2022/12/12 10:48:26;;;;;;;11.30;6.67;;;;;;;;;;5041489;28;20277;-85
2022/12/12 10:50:54;;;;;;;8.33;5.80;;;;;;;;;;5046994;28;20182;-84
2022/12/12 10:53:20;;;;;;;7.83;5.53;;;;;;;;;;5050325;28;20170;-85
2022/12/12 10:55:48;;;;;;;7.07;5.43;;;;;;;;;;5044547;28;20208;-85
2022/12/12 10:58:15;;;;;;;10.03;6.70;;;;;;;;;;5046257;28;20180;-84
2022/12/12 11:00:42;;;;;;;12.93;7.23;;;;;;;;;;5043215;28;20393;-84
2022/12/12 11:03:10;;;;;;;15.07;8.77;;;;;;;;;;5038711;28;20170;-84
2022/12/12 11:05:37;;;;;;;15.97;9.07;;;;;;;;;;5050042;28;20184;-85
2022/12/12 11:08:17;;;;;;;15.20;8.97;;;;;;;;;;5052029;28;20170;-85
2022/12/12 11:10:42;;;;;;;17.20;9.90;;;;;;;;;;5048906;28;20177;-84
2022/12/12 11:13:07;;;;;;;19.80;10.87;;;;;;;;;;5050876;28;20185;-85
2022/12/12 11:15:50;;;;;;;14.60;8.47;;;;;;;;;;5047670;28;20248;-85
2022/12/12 11:18:16;;;;;;;12.87;8.80;;;;;;;;;;5048592;28;20228;-85
2022/12/12 11:20:44;;;;;;;13.97;7.30;;;;;;;;;;5042692;28;20178;-85
2022/12/12 11:23:14;;;;;;;18.40;9.13;;;;;;;;;;5052240;28;20189;-85
2022/12/12 11:25:39;;;;;;;23.03;8.30;;;;;;;;;;5045495;28;20209;-85
2022/12/12 11:28:04;;;;;;;15.83;8.13;;;;;;;;;;5047968;28;20205;-84
2022/12/12 11:30:38;;;;;;;13.70;8.70;;;;;;;;;;5048918;28;20198;-85
2022/12/12 11:33:05;;;;;;;14.23;9.07;;;;;;;;;;5048445;28;20260;-86
2022/12/12 11:35:33;;;;;;;11.33;7.40;;;;;;;;;;5051969;28;20213;-85
2022/12/12 11:38:00;;;;;;;15.20;8.93;;;;;;;;;;5050461;28;20174;-86
2022/12/12 11:40:30;;;;;;;20.03;9.30;;;;;;;;;;5045623;28;20183;-87
2022/12/12 11:43:14;;;;;;;15.03;8.73;;;;;;;;;;5049889;28;20181;-87
2022/12/12 11:45:40;;;;;;;13.70;9.07;;;;;;;;;;5043324;28;20182;-89
2022/12/12 11:48:40;;;;;;;25.87;10.70;;;;;;;;;;5052628;28;20183;-88
2022/12/12 11:51:06;;;;;;;12.57;8.97;;;;;;;;;;4973845;28;20173;-88
2022/12/12 11:53:32;;;;;;;16.53;11.07;;;;;;;;;;5050293;28;20285;-90
2022/12/12 11:56:07;;;;;;;12.73;8.13;;;;;;;;;;5047475;28;20202;-88
2022/12/12 11:58:42;;;;;;;15.13;6.90;;;;;;;;;;5065138;28;20182;-88
2022/12/12 12:01:08;;;;;;;13.17;8.97;;;;;;;;;;5045692;28;20178;-88
2022/12/12 12:03:36;;;;;;;33.57;10.60;;;;;;;;;;5051339;28;20180;-88
2022/12/12 12:06:13;;;;;;;14.37;9.60;;;;;;;;;;5049138;28;20193;-87
2022/12/12 12:08:57;;;;;;;11.83;7.13;;;;;;;;;;5045589;28;20233;-86
2022/12/12 12:11:22;;;;;;;9.47;6.37;;;;;;;;;;5045884;28;20183;-87
2022/12/12 12:13:47;;;;;;;11.57;7.97;;;;;;;;;;5046198;28;20174;-85
2022/12/12 12:16:29;;;;;;;16.75;7.82;;;;;;;;;;5048890;28;20232;-86
2022/12/12 12:19:06;;;;;;;42.27;9.73;;;;;;;;;;5046165;28;20616;-86
2022/12/12 12:21:38;;;;;;;17.17;9.10;;;;;;;;;;5045006;28;20184;-86
2022/12/12 12:24:16;;;;;;;10.13;7.50;;;;;;;;;;5050166;28;20171;-86
2022/12/12 12:27:03;;;;;;;22.80;8.30;;;;;;;;;;5043139;28;20237;-81
2022/12/12 12:29:28;;;;;;;10.60;7.17;;;;;;;;;;5048681;28;20170;-86
2022/12/12 12:32:29;;;;;;;16.03;7.40;;;;;;;;;;5067575;28;20295;-86
2022/12/12 12:35:02;;;;;;;23.10;7.37;;;;;;;;;;5012412;28;20187;-87
2022/12/12 12:37:28;;;;;;;24.33;7.90;;;;;;;;;;5013135;28;20189;-86
2022/12/12 12:40:02;;;;;;;12.02;6.45;;;;;;;;;;5016451;28;20200;-87
2022/12/12 12:42:27;;;;;;;35.97;11.17;;;;;;;;;;5011792;28;20275;-87
2022/12/12 12:45:05;;;;;;;120.15;14.85;;;;;;;;;;4993815;28;20267;-86
2022/12/12 12:47:46;;;;;;;31.10;7.00;;;;;;;;;;5009582;28;20188;-88
2022/12/12 12:50:22;;;;;;;7.13;5.40;;;;;;;;;;4993462;28;20235;-87
2022/12/12 12:52:53;;;;;;;5.83;4.37;;;;;;;;;;5009589;28;20176;-87
2022/12/12 12:55:21;;;;;;;5.40;4.43;;;;;;;;;;5009097;28;20559;-87
2022/12/12 12:57:47;;;;;;;7.53;5.07;;;;;;;;;;5009508;28;20192;-87
2022/12/12 13:00:17;;;;;;;59.13;12.60;;;;;;;;;;5011106;28;20214;-87
2022/12/12 13:02:49;;;;;;;15.53;8.33;;;;;;;;;;5007961;28;20220;-88
2022/12/12 13:05:30;;;;;;;8.67;5.47;;;;;;;;;;5008795;28;20172;-86
2022/12/12 13:07:58;;;;;;;9.63;4.97;;;;;;;;;;5019840;28;20192;-89
2022/12/12 13:10:26;;;;;;;17.37;8.40;;;;;;;;;;5050284;28;20205;-89
2022/12/12 13:13:05;;;;;;;210.63;30.90;;;;;;;;;;5040209;28;20440;-88
2022/12/12 13:15:33;;;;;;;13.70;6.90;;;;;;;;;;5049848;28;20241;-89
2022/12/12 13:18:03;;;;;;;17.57;6.27;;;;;;;;;;5047438;28;20195;-88
2022/12/12 13:20:31;;;;;;;9.53;6.20;;;;;;;;;;5043557;28;20169;-89
2022/12/12 13:23:02;;;;;;;11.20;7.93;;;;;;;;;;5047755;28;20434;-88
2022/12/12 13:25:34;;;;;;;9.57;6.07;;;;;;;;;;5047579;28;20183;-89
2022/12/12 13:28:02;;;;;;;17.40;4.47;;;;;;;;;;5046642;28;20407;-89
2022/12/12 13:30:47;;;;;;;17.23;6.13;;;;;;;;;;5044022;28;20257;-89
2022/12/12 13:33:33;;;;;;;17.13;7.33;;;;;;;;;;5044647;28;20262;-87
2022/12/12 13:36:05;;;;;;;15.03;6.57;;;;;;;;;;5042908;28;20222;-87
2022/12/12 13:38:32;;;;;;;11.03;8.70;;;;;;;;;;5047315;28;20202;-86
2022/12/12 13:41:01;;;;;;;16.80;7.33;;;;;;;;;;5048510;28;20271;-88
2022/12/12 13:43:32;;;;;;;6.73;4.20;;;;;;;;;;5050559;28;20171;-89
2022/12/12 13:46:20;;;;;;;24.23;6.93;;;;;;;;;;5046748;28;20188;-88
2022/12/12 13:48:52;;;;;;;10.47;4.63;;;;;;;;;;5043009;28;20446;-89
2022/12/12 13:51:26;;;;;;;8.83;7.27;;;;;;;;;;5050404;28;20278;-88
2022/12/12 13:54:07;;;;;;;6.93;5.60;;;;;;;;;;5049464;28;20184;-85
2022/12/12 13:56:39;;;;;;;9.47;5.83;;;;;;;;;;5046544;28;20234;-88
2022/12/12 13:59:25;;;;;;;47.27;28.37;;;;;;;;;;5043404;28;20236;-88
2022/12/12 14:01:54;;;;;;;24.27;5.87;;;;;;;;;;5044126;28;20252;-89
2022/12/12 14:04:48;;;;;;;7.20;5.30;;;;;;;;;;5064841;28;20188;-87
2022/12/12 14:07:15;;;;;;;18.03;12.93;;;;;;;;;;5046290;28;20193;-88
2022/12/12 14:09:44;;;;;;;10.70;6.00;;;;;;;;;;5044820;28;20176;-89
2022/12/12 14:12:17;;;;;;;7.53;4.27;;;;;;;;;;5044226;28;20180;-89
2022/12/12 14:14:50;;;;;;;12.13;5.07;;;;;;;;;;5045546;28;20224;-88
2022/12/12 14:17:19;;;;;;;8.03;5.50;;;;;;;;;;5046760;28;20212;-88
2022/12/12 14:19:49;;;;;;;9.63;6.70;;;;;;;;;;5044430;28;20181;-88
2022/12/12 14:22:27;;;;;;;18.43;6.30;;;;;;;;;;5047240;28;20279;-88
2022/12/12 14:24:54;;;;;;;13.93;4.33;;;;;;;;;;5046735;28;20249;-87
2022/12/12 14:27:39;;;;;;;4.53;2.37;;;;;;;;;;5044273;28;20234;-89
2022/12/12 14:30:15;;;;;;;64.77;7.73;;;;;;;;;;5042758;28;20184;-88
2022/12/12 14:32:49;;;;;;;4.10;2.60;;;;;;;;;;5046314;28;20242;-88
2022/12/12 14:35:40;;;;;;;3.27;2.97;;;;;;;;;;5045808;28;20205;-88
2022/12/12 14:38:24;;;;;;;16.67;3.53;;;;;;;;;;5034202;28;20528;-87
2022/12/12 14:40:52;;;;;;;8.10;3.93;;;;;;;;;;5050267;28;20210;-89
2022/12/12 14:43:18;;;;;;;4.07;3.13;;;;;;;;;;5070623;28;20202;-88
2022/12/12 14:45:49;;;;;;;31.02;6.28;;;;;;;;;;5049723;28;20248;-88
2022/12/12 14:48:14;;;;;;;13.50;4.43;;;;;;;;;;5048210;28;20191;-88
2022/12/12 14:50:43;;;;;;;8.47;3.13;;;;;;;;;;5052029;28;20180;-87